Time;durP1;ratioP1;P1;durP2;ratioP2;P2;SDS_P1;SDS_P2;PMS_P1;PMS_P2;Temp;Humidity;BMP_temperature;BMP_pressure;BME280_temperature;BME280_humidity;BME280_pressure;Samples;Min_cycle;Max_cycle;Signal;HPM_P1;HPM_P2
2022/09/02 00:00:59;;;;;;;6.25;3.35;;;;;;;;;;5044177;28;20039;-81
2022/09/02 00:03:28;;;;;;;4.07;2.90;;;;;;;;;;5046047;28;20085;-81
2022/09/02 00:05:53;;;;;;;3.40;2.92;;;;;;;;;;5047343;28;20041;-81
2022/09/02 00:08:18;;;;;;;4.28;3.20;;;;;;;;;;5045710;28;20309;-82
2022/09/02 00:10:44;;;;;;;4.68;2.97;;;;;;;;;;5046409;28;20041;-82
2022/09/02 00:13:13;;;;;;;4.82;3.70;;;;;;;;;;5047492;28;20037;-81
2022/09/02 00:15:40;;;;;;;6.65;3.30;;;;;;;;;;5047086;28;20032;-81
2022/09/02 00:18:06;;;;;;;5.63;3.08;;;;;;;;;;5046186;28;20126;-81
2022/09/02 00:20:32;;;;;;;3.95;2.95;;;;;;;;;;5045865;28;20040;-81
2022/09/02 00:22:57;;;;;;;3.35;2.85;;;;;;;;;;5041313;28;20541;-81
2022/09/02 00:25:23;;;;;;;4.82;3.05;;;;;;;;;;5044497;28;20370;-82
2022/09/02 00:27:49;;;;;;;4.75;3.53;;;;;;;;;;5030126;28;20036;-81
2022/09/02 00:30:15;;;;;;;5.15;3.30;;;;;;;;;;5039328;28;20054;-81
2022/09/02 00:32:41;;;;;;;4.80;3.50;;;;;;;;;;5046998;28;20049;-82
2022/09/02 00:35:08;;;;;;;4.18;3.05;;;;;;;;;;5046901;28;20040;-82
2022/09/02 00:37:33;;;;;;;5.60;3.80;;;;;;;;;;5047139;28;20031;-81
2022/09/02 00:40:00;;;;;;;6.00;2.95;;;;;;;;;;5046886;28;20452;-81
2022/09/02 00:42:25;;;;;;;9.25;3.45;;;;;;;;;;5045813;28;20495;-81
2022/09/02 00:44:52;;;;;;;4.13;3.00;;;;;;;;;;5031270;28;20116;-81
2022/09/02 00:47:18;;;;;;;4.55;3.53;;;;;;;;;;5037512;28;20528;-82
2022/09/02 00:49:48;;;;;;;5.47;3.42;;;;;;;;;;5046588;28;20036;-82
2022/09/02 00:52:23;;;;;;;5.40;3.60;;;;;;;;;;5045996;28;20461;-82
2022/09/02 00:55:13;;;;;;;6.00;3.63;;;;;;;;;;5044078;28;20406;-82
2022/09/02 00:57:42;;;;;;;8.23;3.45;;;;;;;;;;5028697;28;20025;-82
2022/09/02 01:00:12;;;;;;;4.53;3.20;;;;;;;;;;5045596;28;20033;-82
2022/09/02 01:02:40;;;;;;;7.47;3.75;;;;;;;;;;5041118;28;20038;-82
2022/09/02 01:05:09;;;;;;;6.38;3.70;;;;;;;;;;5043104;28;20356;-81
2022/09/02 01:07:37;;;;;;;5.22;3.80;;;;;;;;;;5046334;28;20033;-82
2022/09/02 01:10:08;;;;;;;6.78;3.88;;;;;;;;;;5043891;28;20036;-82
2022/09/02 01:12:34;;;;;;;7.97;3.67;;;;;;;;;;5033097;28;20014;-82
2022/09/02 01:15:01;;;;;;;5.82;3.70;;;;;;;;;;5026738;28;20037;-82
2022/09/02 01:17:27;;;;;;;4.90;3.38;;;;;;;;;;5033954;28;20036;-82
2022/09/02 01:19:58;;;;;;;8.95;3.50;;;;;;;;;;5042049;28;20033;-82
2022/09/02 01:22:27;;;;;;;4.15;3.20;;;;;;;;;;5046233;28;20585;-82
2022/09/02 01:24:56;;;;;;;5.75;3.70;;;;;;;;;;5045724;28;20059;-82
2022/09/02 01:27:22;;;;;;;6.30;3.85;;;;;;;;;;5025196;28;20105;-82
2022/09/02 01:29:53;;;;;;;5.60;3.75;;;;;;;;;;5024998;28;20042;-82
2022/09/02 01:32:19;;;;;;;5.30;3.33;;;;;;;;;;5024933;28;20029;-82
2022/09/02 01:34:45;;;;;;;6.55;4.03;;;;;;;;;;5042851;28;20391;-82
2022/09/02 01:37:11;;;;;;;6.45;3.90;;;;;;;;;;5042922;28;20604;-82
2022/09/02 01:39:36;;;;;;;5.18;3.67;;;;;;;;;;5044955;28;20071;-82
2022/09/02 01:42:01;;;;;;;4.68;3.78;;;;;;;;;;5044432;28;20124;-82
2022/09/02 01:44:27;;;;;;;4.97;3.95;;;;;;;;;;5045667;28;20083;-81
2022/09/02 01:46:54;;;;;;;7.25;3.92;;;;;;;;;;5043050;28;20445;-82
2022/09/02 01:49:20;;;;;;;5.20;3.63;;;;;;;;;;5045664;28;20033;-82
2022/09/02 01:51:45;;;;;;;5.38;3.53;;;;;;;;;;5026304;28;20025;-82
2022/09/02 01:54:11;;;;;;;5.35;4.00;;;;;;;;;;5028571;28;20049;-82
2022/09/02 01:56:36;;;;;;;4.82;3.63;;;;;;;;;;5031895;28;20041;-81
2022/09/02 01:59:02;;;;;;;7.70;4.30;;;;;;;;;;5037307;28;20457;-82
2022/09/02 02:01:28;;;;;;;5.43;3.70;;;;;;;;;;5045196;28;20043;-82
2022/09/02 02:03:53;;;;;;;7.90;3.90;;;;;;;;;;5045451;28;20600;-81
2022/09/02 02:06:19;;;;;;;7.75;3.80;;;;;;;;;;5044758;28;20374;-82
2022/09/02 02:08:45;;;;;;;6.47;4.15;;;;;;;;;;5041948;28;20067;-82
2022/09/02 02:11:11;;;;;;;6.28;4.20;;;;;;;;;;5032369;28;20061;-82
2022/09/02 02:13:37;;;;;;;5.50;4.00;;;;;;;;;;5043184;28;20049;-82
2022/09/02 02:16:03;;;;;;;6.90;4.30;;;;;;;;;;5042849;28;20031;-82
2022/09/02 02:18:28;;;;;;;5.82;4.00;;;;;;;;;;5029977;28;20052;-82
2022/09/02 02:20:54;;;;;;;6.13;3.92;;;;;;;;;;5041982;28;20759;-82
2022/09/02 02:23:22;;;;;;;8.23;4.05;;;;;;;;;;5032782;28;20060;-82
2022/09/02 02:25:47;;;;;;;6.53;3.85;;;;;;;;;;5059615;28;20136;-82
2022/09/02 02:28:13;;;;;;;6.03;3.83;;;;;;;;;;5043166;28;20135;-81
2022/09/02 02:30:39;;;;;;;6.85;4.30;;;;;;;;;;5045623;28;20053;-82
2022/09/02 02:33:04;;;;;;;12.43;4.55;;;;;;;;;;5045297;28;20507;-81
2022/09/02 02:35:30;;;;;;;7.57;4.60;;;;;;;;;;5043623;28;20116;-82
2022/09/02 02:37:55;;;;;;;6.93;4.05;;;;;;;;;;5045410;28;20047;-82
2022/09/02 02:40:23;;;;;;;6.18;4.35;;;;;;;;;;5043170;28;20033;-82
2022/09/02 02:42:52;;;;;;;6.60;4.32;;;;;;;;;;5025907;28;20022;-82
2022/09/02 02:45:17;;;;;;;6.10;4.18;;;;;;;;;;5041177;28;20091;-82
2022/09/02 02:47:45;;;;;;;6.15;4.03;;;;;;;;;;5043391;28;20033;-82
2022/09/02 02:50:12;;;;;;;6.15;4.32;;;;;;;;;;5039650;28;20597;-82
2022/09/02 02:52:39;;;;;;;6.97;4.60;;;;;;;;;;5043381;28;20067;-82
2022/09/02 02:55:06;;;;;;;5.63;4.10;;;;;;;;;;5044706;28;20113;-82
2022/09/02 02:57:33;;;;;;;7.75;4.47;;;;;;;;;;5045601;28;20059;-82
2022/09/02 03:00:05;;;;;;;7.70;4.85;;;;;;;;;;5041688;28;20128;-82
2022/09/02 03:02:33;;;;;;;9.52;5.28;;;;;;;;;;5042505;28;20045;-82
2022/09/02 03:04:59;;;;;;;7.47;4.40;;;;;;;;;;5041691;28;20127;-82
2022/09/02 03:07:24;;;;;;;5.32;4.30;;;;;;;;;;5045050;28;20033;-82
2022/09/02 03:09:50;;;;;;;7.47;4.80;;;;;;;;;;5044836;28;20059;-82
2022/09/02 03:12:15;;;;;;;7.00;4.32;;;;;;;;;;5045243;28;20127;-82
2022/09/02 03:14:40;;;;;;;6.93;4.78;;;;;;;;;;5042777;28;20041;-83
2022/09/02 03:17:06;;;;;;;6.93;4.47;;;;;;;;;;5045081;28;20522;-82
2022/09/02 03:19:31;;;;;;;5.90;4.18;;;;;;;;;;5048423;28;20683;-82
2022/09/02 03:21:56;;;;;;;6.65;4.43;;;;;;;;;;5048185;28;20025;-81
2022/09/02 03:24:22;;;;;;;9.80;4.85;;;;;;;;;;5043327;28;20033;-81
2022/09/02 03:26:47;;;;;;;6.40;4.82;;;;;;;;;;5027562;28;20150;-82
2022/09/02 03:29:13;;;;;;;9.15;5.03;;;;;;;;;;5028208;28;20060;-81
2022/09/02 03:31:38;;;;;;;6.82;4.55;;;;;;;;;;5028280;28;20064;-82
2022/09/02 03:34:04;;;;;;;7.88;4.80;;;;;;;;;;5039068;28;20394;-82
2022/09/02 03:36:42;;;;;;;9.38;5.50;;;;;;;;;;5048570;28;20021;-82
2022/09/02 03:39:09;;;;;;;10.45;4.80;;;;;;;;;;5046486;28;20544;-82
2022/09/02 03:41:35;;;;;;;7.15;4.75;;;;;;;;;;5054025;28;20563;-82
2022/09/02 03:44:01;;;;;;;8.95;5.70;;;;;;;;;;5035431;28;20120;-81
2022/09/02 03:46:26;;;;;;;9.07;5.03;;;;;;;;;;5042798;28;20038;-82
2022/09/02 03:48:52;;;;;;;6.88;5.00;;;;;;;;;;5044115;28;20017;-82
2022/09/02 03:51:22;;;;;;;11.88;5.15;;;;;;;;;;5046817;28;20039;-82
2022/09/02 03:53:48;;;;;;;10.18;5.57;;;;;;;;;;5046326;28;20048;-81
2022/09/02 03:56:14;;;;;;;7.35;5.00;;;;;;;;;;5047668;28;20462;-82
2022/09/02 03:58:42;;;;;;;7.32;4.53;;;;;;;;;;5048130;28;20033;-81
2022/09/02 04:01:11;;;;;;;8.20;5.07;;;;;;;;;;5045894;28;20112;-82
2022/09/02 04:03:36;;;;;;;8.07;5.18;;;;;;;;;;5046318;28;20115;-81
2022/09/02 04:06:02;;;;;;;10.23;4.45;;;;;;;;;;5027712;28;20132;-82
2022/09/02 04:08:28;;;;;;;7.85;4.50;;;;;;;;;;5025861;28;20601;-82
2022/09/02 04:10:55;;;;;;;8.07;5.00;;;;;;;;;;5045809;28;20068;-81
2022/09/02 04:13:20;;;;;;;7.10;4.82;;;;;;;;;;5047760;28;20036;-82
2022/09/02 04:15:47;;;;;;;9.55;5.10;;;;;;;;;;5045804;28;20063;-81
2022/09/02 04:18:15;;;;;;;9.05;5.40;;;;;;;;;;5048069;28;20031;-82
2022/09/02 04:20:42;;;;;;;11.23;4.97;;;;;;;;;;5044426;28;20045;-82
2022/09/02 04:23:08;;;;;;;10.07;5.03;;;;;;;;;;5046887;28;20041;-81
2022/09/02 04:25:38;;;;;;;8.07;4.68;;;;;;;;;;5045812;28;20039;-81
2022/09/02 04:28:03;;;;;;;7.57;4.72;;;;;;;;;;5047068;28;20025;-82
2022/09/02 04:30:29;;;;;;;10.05;5.22;;;;;;;;;;5046561;28;20021;-81
2022/09/02 04:32:54;;;;;;;9.18;5.05;;;;;;;;;;5044184;28;20484;-82
2022/09/02 04:35:20;;;;;;;10.52;5.07;;;;;;;;;;5046006;28;21012;-82
2022/09/02 04:37:47;;;;;;;8.30;5.10;;;;;;;;;;5043948;28;20127;-82
2022/09/02 04:40:13;;;;;;;16.20;5.13;;;;;;;;;;5046839;28;20538;-82
2022/09/02 04:42:39;;;;;;;8.45;4.57;;;;;;;;;;5032227;28;20022;-82
2022/09/02 04:45:04;;;;;;;7.53;4.28;;;;;;;;;;5050798;28;20037;-81
2022/09/02 04:47:30;;;;;;;10.10;4.32;;;;;;;;;;5040216;28;20546;-81
2022/09/02 04:49:56;;;;;;;16.77;5.40;;;;;;;;;;5045095;28;20037;-82
2022/09/02 04:52:21;;;;;;;10.75;5.00;;;;;;;;;;5039282;28;20041;-81
2022/09/02 04:54:47;;;;;;;11.80;5.15;;;;;;;;;;5042119;28;20060;-82
2022/09/02 04:57:12;;;;;;;8.88;5.05;;;;;;;;;;5025870;28;20033;-81
2022/09/02 04:59:38;;;;;;;8.48;4.78;;;;;;;;;;5041846;28;20468;-81
2022/09/02 05:02:04;;;;;;;15.35;5.88;;;;;;;;;;5026633;28;20064;-81
2022/09/02 05:04:30;;;;;;;7.95;4.47;;;;;;;;;;5033492;28;20072;-81
2022/09/02 05:06:57;;;;;;;10.70;5.07;;;;;;;;;;5046502;28;20044;-81
2022/09/02 05:09:23;;;;;;;12.23;5.25;;;;;;;;;;5043251;28;20076;-81
2022/09/02 05:11:48;;;;;;;12.00;6.00;;;;;;;;;;5046557;28;20067;-81
2022/09/02 05:14:15;;;;;;;10.45;5.47;;;;;;;;;;5046517;28;20464;-81
2022/09/02 05:16:41;;;;;;;15.95;5.88;;;;;;;;;;5046240;28;20040;-81
2022/09/02 05:19:09;;;;;;;11.13;5.25;;;;;;;;;;5046476;28;20616;-81
2022/09/02 05:21:38;;;;;;;24.80;6.00;;;;;;;;;;5044125;28;20021;-81
2022/09/02 05:24:04;;;;;;;22.77;6.43;;;;;;;;;;5032082;28;20439;-81
2022/09/02 05:26:30;;;;;;;12.88;5.90;;;;;;;;;;5044255;28;20052;-81
2022/09/02 05:28:56;;;;;;;18.20;5.40;;;;;;;;;;5045899;28;20051;-81
2022/09/02 05:31:21;;;;;;;30.58;7.07;;;;;;;;;;5042205;28;20049;-81
2022/09/02 05:33:47;;;;;;;21.65;5.97;;;;;;;;;;5045760;28;20028;-81
2022/09/02 05:36:17;;;;;;;32.03;6.53;;;;;;;;;;5045062;28;20025;-80
2022/09/02 05:38:43;;;;;;;23.60;6.72;;;;;;;;;;5043682;28;20538;-81
2022/09/02 05:41:13;;;;;;;17.00;6.03;;;;;;;;;;5044382;28;20055;-80
2022/09/02 05:43:40;;;;;;;20.13;5.82;;;;;;;;;;5042609;28;20049;-80
2022/09/02 05:46:07;;;;;;;30.63;6.43;;;;;;;;;;5039167;28;20034;-80
2022/09/02 05:51:18;;;;;;;19.90;5.70;;;;;;;;;;5043931;28;20044;-81
2022/09/02 05:53:43;;;;;;;26.73;6.00;;;;;;;;;;5042780;28;20029;-81
2022/09/02 05:56:09;;;;;;;21.48;6.35;;;;;;;;;;5045686;28;20041;-81
2022/09/02 05:58:34;;;;;;;16.90;6.55;;;;;;;;;;5044310;28;20036;-80
2022/09/02 06:01:05;;;;;;;18.27;6.55;;;;;;;;;;5042768;28;20683;-81
2022/09/02 06:03:30;;;;;;;19.23;6.63;;;;;;;;;;5045916;28;20572;-80
2022/09/02 06:05:57;;;;;;;17.83;6.30;;;;;;;;;;5042590;28;20033;-81
2022/09/02 06:08:23;;;;;;;17.77;5.85;;;;;;;;;;5038206;28;20072;-82
2022/09/02 06:10:48;;;;;;;25.85;6.65;;;;;;;;;;5044154;28;20049;-81
2022/09/02 06:13:14;;;;;;;22.77;6.72;;;;;;;;;;5044188;28;20522;-81
2022/09/02 06:15:42;;;;;;;17.83;6.57;;;;;;;;;;5049147;28;20028;-80
2022/09/02 06:18:08;;;;;;;17.90;6.38;;;;;;;;;;5043643;28;20052;-80
2022/09/02 06:20:34;;;;;;;17.70;6.18;;;;;;;;;;5045433;28;20041;-80
2022/09/02 06:22:59;;;;;;;23.73;7.70;;;;;;;;;;5044405;28;20048;-80
2022/09/02 06:25:25;;;;;;;15.82;6.72;;;;;;;;;;5040654;28;20127;-81
2022/09/02 06:27:50;;;;;;;12.55;6.15;;;;;;;;;;5027601;28;20031;-81
2022/09/02 06:30:15;;;;;;;15.82;6.60;;;;;;;;;;5036596;28;20474;-81
2022/09/02 06:32:41;;;;;;;19.13;6.30;;;;;;;;;;5042331;28;20049;-80
2022/09/02 06:35:08;;;;;;;13.73;6.13;;;;;;;;;;5039362;28;20040;-81
2022/09/02 06:37:34;;;;;;;10.90;6.00;;;;;;;;;;5045272;28;20059;-81
2022/09/02 06:39:59;;;;;;;14.13;6.15;;;;;;;;;;5044674;28;20402;-82
2022/09/02 06:42:25;;;;;;;17.50;5.95;;;;;;;;;;5045595;28;20025;-82
2022/09/02 06:44:51;;;;;;;13.60;5.22;;;;;;;;;;5036197;28;20045;-82
2022/09/02 06:47:16;;;;;;;15.32;6.85;;;;;;;;;;5034523;28;20044;-82
2022/09/02 06:49:41;;;;;;;20.83;6.43;;;;;;;;;;5036560;28;20045;-83
2022/09/02 06:52:07;;;;;;;18.30;6.70;;;;;;;;;;5040191;28;20060;-83
2022/09/02 06:54:32;;;;;;;15.88;7.20;;;;;;;;;;5048204;28;20024;-84
2022/09/02 06:56:58;;;;;;;15.70;6.75;;;;;;;;;;5046238;28;20522;-87
2022/09/02 06:59:23;;;;;;;14.55;7.50;;;;;;;;;;5047259;28;20068;-88
2022/09/02 07:01:49;;;;;;;14.27;5.85;;;;;;;;;;5038032;28;20418;-89
2022/09/02 07:07:02;;;;;;;12.27;6.10;;;;;;;;;;5040630;28;20098;-89
2022/09/02 07:09:31;;;;;;;14.50;5.97;;;;;;;;;;5048578;28;20041;-85
2022/09/02 07:11:58;;;;;;;12.15;6.05;;;;;;;;;;5047310;28;20033;-86
2022/09/02 07:14:27;;;;;;;11.02;6.03;;;;;;;;;;5045529;28;20037;-87
2022/09/02 07:16:56;;;;;;;8.82;6.10;;;;;;;;;;5045485;28;20045;-88
2022/09/02 07:19:22;;;;;;;14.20;5.53;;;;;;;;;;5045555;28;20045;-85
2022/09/02 07:21:48;;;;;;;9.20;5.05;;;;;;;;;;5048207;28;20446;-86
2022/09/02 07:24:15;;;;;;;9.10;5.90;;;;;;;;;;5043127;28;20493;-86
2022/09/02 07:26:42;;;;;;;8.05;4.70;;;;;;;;;;5042630;28;20115;-87
2022/09/02 07:29:10;;;;;;;8.43;5.40;;;;;;;;;;5039036;28;20072;-85
2022/09/02 07:31:37;;;;;;;8.80;5.07;;;;;;;;;;5044199;28;20065;-90
2022/09/02 07:34:04;;;;;;;16.50;5.05;;;;;;;;;;5040675;28;20029;-84
2022/09/02 07:36:30;;;;;;;6.47;4.40;;;;;;;;;;5044137;28;20025;-89
2022/09/02 07:38:55;;;;;;;7.65;4.97;;;;;;;;;;5044487;28;20041;-86
2022/09/02 07:41:22;;;;;;;8.05;4.85;;;;;;;;;;5041649;28;20033;-91
2022/09/02 07:43:49;;;;;;;7.95;5.03;;;;;;;;;;5047275;28;20135;-93
2022/09/02 07:46:14;;;;;;;7.57;4.43;;;;;;;;;;5050056;28;20021;-96
2022/09/02 07:48:41;;;;;;;7.90;4.78;;;;;;;;;;5046425;28;20044;-91
2022/09/02 07:51:07;;;;;;;6.10;4.65;;;;;;;;;;5048463;28;20418;-94
2022/09/02 07:53:33;;;;;;;7.78;5.32;;;;;;;;;;5051624;28;20033;-93
2022/09/02 07:55:59;;;;;;;8.13;4.47;;;;;;;;;;5046636;28;20124;-95
2022/09/02 07:58:25;;;;;;;5.70;4.45;;;;;;;;;;5052906;28;20053;-94
2022/09/02 08:00:51;;;;;;;5.55;4.10;;;;;;;;;;5041797;28;20466;-96
2022/09/02 08:03:18;;;;;;;6.53;4.38;;;;;;;;;;5053566;28;20078;-94
2022/09/02 08:05:45;;;;;;;10.35;4.18;;;;;;;;;;5047557;28;20075;-93
2022/09/02 08:08:13;;;;;;;5.57;4.40;;;;;;;;;;5050029;28;20145;-92
2022/09/02 08:10:38;;;;;;;8.05;4.45;;;;;;;;;;5048909;28;20068;-94
2022/09/02 08:13:05;;;;;;;7.75;4.65;;;;;;;;;;5041002;28;20071;-93
2022/09/02 08:15:32;;;;;;;8.38;4.50;;;;;;;;;;5048546;28;20123;-91
2022/09/02 08:18:01;;;;;;;7.13;4.25;;;;;;;;;;5048045;28;20067;-92
2022/09/02 08:20:29;;;;;;;6.65;4.60;;;;;;;;;;5046341;28;20060;-89
2022/09/02 08:22:55;;;;;;;8.25;4.40;;;;;;;;;;5040078;28;20032;-89
2022/09/02 08:25:20;;;;;;;8.38;4.47;;;;;;;;;;5023677;28;20057;-91
2022/09/02 08:27:45;;;;;;;5.60;3.92;;;;;;;;;;5036861;28;20457;-91
2022/09/02 08:30:11;;;;;;;5.78;4.07;;;;;;;;;;5043726;28;20120;-88
2022/09/02 08:32:38;;;;;;;6.47;4.47;;;;;;;;;;5035537;28;20557;-90
2022/09/02 08:35:05;;;;;;;7.65;4.20;;;;;;;;;;5044461;28;20034;-93
2022/09/02 08:37:32;;;;;;;6.13;4.43;;;;;;;;;;5042242;28;20052;-90
2022/09/02 08:39:58;;;;;;;5.70;3.88;;;;;;;;;;5043175;28;20036;-87
2022/09/02 08:42:32;;;;;;;7.72;4.32;;;;;;;;;;5041775;28;20490;-86
2022/09/02 08:45:11;;;;;;;6.30;4.60;;;;;;;;;;5033685;28;20631;-86
2022/09/02 08:47:42;;;;;;;6.95;4.47;;;;;;;;;;5038560;28;20045;-92
2022/09/02 08:50:18;;;;;;;5.28;4.10;;;;;;;;;;5040957;28;20028;-86
2022/09/02 08:53:02;;;;;;;6.45;3.97;;;;;;;;;;5039880;28;20132;-87
2022/09/02 08:55:34;;;;;;;6.00;4.10;;;;;;;;;;5046764;28;20029;-90
2022/09/02 08:58:00;;;;;;;5.43;4.07;;;;;;;;;;5044875;28;20533;-89
2022/09/02 09:00:27;;;;;;;5.05;4.03;;;;;;;;;;5038801;28;20024;-87
2022/09/02 09:03:20;;;;;;;6.00;3.75;;;;;;;;;;5038762;28;20034;-87
2022/09/02 09:05:54;;;;;;;6.87;4.33;;;;;;;;;;5040309;28;20040;-88
2022/09/02 09:08:47;;;;;;;8.10;4.05;;;;;;;;;;5023910;28;20186;-86
2022/09/02 09:11:57;;;;;;;5.82;4.10;;;;;;;;;;5033503;28;20036;-86
2022/09/02 09:14:31;;;;;;;8.07;3.95;;;;;;;;;;5016159;28;20033;-86
2022/09/02 09:16:59;;;;;;;5.38;3.70;;;;;;;;;;5037815;28;20584;-84
2022/09/02 09:19:31;;;;;;;11.50;4.47;;;;;;;;;;5052835;28;20059;-85
2022/09/02 09:21:59;;;;;;;4.28;3.40;;;;;;;;;;5027835;28;20029;-86
2022/09/02 09:24:26;;;;;;;6.80;4.03;;;;;;;;;;5038780;28;20025;-87
2022/09/02 09:26:54;;;;;;;7.68;3.67;;;;;;;;;;5031718;28;20566;-85
2022/09/02 09:29:19;;;;;;;4.93;3.90;;;;;;;;;;5033642;28;20040;-86
2022/09/02 09:31:57;;;;;;;6.07;4.10;;;;;;;;;;5038022;28;20025;-86
2022/09/02 09:34:22;;;;;;;5.00;4.00;;;;;;;;;;5033347;28;20025;-85
2022/09/02 09:36:54;;;;;;;5.65;3.88;;;;;;;;;;5035432;28;20032;-86
2022/09/02 09:39:29;;;;;;;5.57;4.00;;;;;;;;;;5042756;28;20028;-86
2022/09/02 09:42:01;;;;;;;5.88;3.83;;;;;;;;;;5039069;28;20056;-88
2022/09/02 09:44:40;;;;;;;5.43;3.92;;;;;;;;;;5035428;28;20041;-85
2022/09/02 09:47:18;;;;;;;6.88;4.20;;;;;;;;;;5034073;28;20036;-89
2022/09/02 09:49:44;;;;;;;6.63;4.13;;;;;;;;;;5032967;28;20128;-87
2022/09/02 09:52:09;;;;;;;4.57;3.63;;;;;;;;;;5040372;28;20067;-88
2022/09/02 09:54:37;;;;;;;8.13;4.78;;;;;;;;;;5034795;28;20017;-90
2022/09/02 09:57:20;;;;;;;5.15;3.58;;;;;;;;;;5024990;28;20112;-88
2022/09/02 09:59:48;;;;;;;4.20;3.53;;;;;;;;;;5029902;28;20030;-87
2022/09/02 10:02:25;;;;;;;3.95;3.42;;;;;;;;;;5038239;28;20036;-89
2022/09/02 10:04:52;;;;;;;4.75;3.70;;;;;;;;;;5040627;28;20052;-88
2022/09/02 10:07:37;;;;;;;5.53;4.25;;;;;;;;;;5039790;28;20138;-86
2022/09/02 10:10:29;;;;;;;7.05;4.00;;;;;;;;;;5024344;28;20076;-87
2022/09/02 10:13:14;;;;;;;4.63;3.50;;;;;;;;;;5024121;28;20384;-87
2022/09/02 10:15:52;;;;;;;4.40;3.65;;;;;;;;;;5033444;28;20024;-87
2022/09/02 10:18:38;;;;;;;6.75;3.75;;;;;;;;;;5035825;28;20139;-89
2022/09/02 10:21:10;;;;;;;6.47;3.60;;;;;;;;;;5056973;28;20500;-89
2022/09/02 10:23:54;;;;;;;4.78;3.75;;;;;;;;;;5043598;28;20037;-86
2022/09/02 10:26:52;;;;;;;4.55;3.70;;;;;;;;;;5026406;28;20033;-85
2022/09/02 10:29:51;;;;;;;4.80;3.70;;;;;;;;;;5044551;28;20148;-88
2022/09/02 10:32:26;;;;;;;4.55;3.58;;;;;;;;;;5046787;28;20513;-89
2022/09/02 10:35:12;;;;;;;6.97;3.72;;;;;;;;;;5033723;28;20152;-88
2022/09/02 10:37:41;;;;;;;4.55;3.83;;;;;;;;;;5035517;28;20065;-87
2022/09/02 10:40:16;;;;;;;5.95;3.80;;;;;;;;;;5044293;28;20072;-85
2022/09/02 10:43:05;;;;;;;5.70;3.63;;;;;;;;;;5033903;28;20404;-85
2022/09/02 10:45:56;;;;;;;3.70;3.33;;;;;;;;;;5027536;28;20114;-84
2022/09/02 10:48:40;;;;;;;5.15;3.75;;;;;;;;;;5041821;28;20045;-88
2022/09/02 10:51:20;;;;;;;5.40;4.70;;;;;;;;;;5038529;28;20573;-87
2022/09/02 10:54:17;;;;;;;4.47;3.38;;;;;;;;;;5031087;28;20465;-84
2022/09/02 10:56:56;;;;;;;5.28;3.70;;;;;;;;;;5046136;28;20075;-89
2022/09/02 10:59:57;;;;;;;8.52;3.60;;;;;;;;;;5035715;28;20747;-86
2022/09/02 11:02:33;;;;;;;4.60;3.40;;;;;;;;;;5023869;28;20449;-85
2022/09/02 11:05:04;;;;;;;4.20;3.47;;;;;;;;;;5043297;28;20038;-90
2022/09/02 11:07:39;;;;;;;4.57;3.30;;;;;;;;;;5041829;28;20127;-88
2022/09/02 11:10:17;;;;;;;11.35;3.60;;;;;;;;;;5044868;28;20045;-85
2022/09/02 11:12:53;;;;;;;4.47;3.47;;;;;;;;;;5037756;28;20029;-87
2022/09/02 11:15:23;;;;;;;4.18;3.22;;;;;;;;;;5047155;28;20070;-91
2022/09/02 11:17:53;;;;;;;4.00;3.28;;;;;;;;;;5032342;28;20068;-84
2022/09/02 11:20:43;;;;;;;4.13;3.53;;;;;;;;;;5040650;28;20443;-88
2022/09/02 11:23:14;;;;;;;8.07;3.80;;;;;;;;;;5051369;28;20836;-88
2022/09/02 11:25:54;;;;;;;4.97;3.70;;;;;;;;;;5053953;28;20052;-89
2022/09/02 11:28:32;;;;;;;5.10;3.50;;;;;;;;;;5033635;28;20052;-88
2022/09/02 11:31:06;;;;;;;3.97;3.30;;;;;;;;;;5034871;28;20029;-84
2022/09/02 11:33:40;;;;;;;4.20;3.70;;;;;;;;;;5039508;28;21501;-88
2022/09/02 11:36:06;;;;;;;6.20;3.15;;;;;;;;;;5056986;28;20037;-88
2022/09/02 11:38:46;;;;;;;3.58;3.15;;;;;;;;;;5040038;28;20084;-89
2022/09/02 11:41:34;;;;;;;4.38;3.38;;;;;;;;;;5041415;28;20049;-86
2022/09/02 11:44:26;;;;;;;5.90;3.40;;;;;;;;;;5036557;28;20041;-89
2022/09/02 11:47:08;;;;;;;3.80;3.17;;;;;;;;;;5036074;28;20042;-88
2022/09/02 11:49:55;;;;;;;3.85;3.03;;;;;;;;;;5037393;28;20045;-88
2022/09/02 11:52:27;;;;;;;4.32;3.40;;;;;;;;;;5041822;28;20137;-87
2022/09/02 11:55:08;;;;;;;9.60;3.35;;;;;;;;;;5043295;28;20033;-89
2022/09/02 11:57:34;;;;;;;4.63;3.38;;;;;;;;;;5055537;28;20174;-86
2022/09/02 12:00:04;;;;;;;5.63;3.33;;;;;;;;;;5039780;28;20048;-86
2022/09/02 12:02:38;;;;;;;4.72;3.38;;;;;;;;;;5038588;28;20056;-87
2022/09/02 12:05:28;;;;;;;5.47;3.20;;;;;;;;;;5039104;28;20105;-87
2022/09/02 12:08:26;;;;;;;5.47;3.22;;;;;;;;;;5052462;28;20132;-89
2022/09/02 12:11:00;;;;;;;3.78;3.17;;;;;;;;;;5038501;28;20064;-88
2022/09/02 12:13:47;;;;;;;4.93;3.30;;;;;;;;;;5038565;28;20040;-87
2022/09/02 12:16:18;;;;;;;4.30;3.40;;;;;;;;;;5036632;28;20051;-86
2022/09/02 12:18:59;;;;;;;4.65;3.05;;;;;;;;;;5036678;28;20038;-87
2022/09/02 12:21:26;;;;;;;3.95;3.10;;;;;;;;;;5039251;28;20043;-89
2022/09/02 12:23:52;;;;;;;5.78;3.22;;;;;;;;;;5040584;28;20029;-88
2022/09/02 12:26:22;;;;;;;4.60;3.10;;;;;;;;;;5034872;28;20048;-88
2022/09/02 12:28:50;;;;;;;3.40;2.95;;;;;;;;;;5042547;28;20509;-88
2022/09/02 12:31:27;;;;;;;3.42;2.97;;;;;;;;;;5039588;28;20041;-88
2022/09/02 12:33:53;;;;;;;3.85;3.10;;;;;;;;;;5037555;28;20082;-89
2022/09/02 12:36:38;;;;;;;6.78;3.40;;;;;;;;;;5043484;28;20111;-90
2022/09/02 12:39:26;;;;;;;4.43;3.38;;;;;;;;;;5037177;28;20161;-88
2022/09/02 12:42:07;;;;;;;4.22;3.10;;;;;;;;;;5039383;28;20040;-88
2022/09/02 12:44:50;;;;;;;5.38;3.30;;;;;;;;;;5039359;28;20529;-89
2022/09/02 12:47:18;;;;;;;4.00;3.27;;;;;;;;;;5050093;28;20036;-89
2022/09/02 12:50:21;;;;;;;3.70;3.20;;;;;;;;;;5040732;28;20288;-89
2022/09/02 12:52:48;;;;;;;5.70;3.00;;;;;;;;;;5025678;28;20049;-87
2022/09/02 12:55:21;;;;;;;3.47;3.10;;;;;;;;;;5053736;28;20033;-88
2022/09/02 12:57:52;;;;;;;3.55;3.13;;;;;;;;;;5038163;28;20037;-88
2022/09/02 13:00:36;;;;;;;4.78;3.00;;;;;;;;;;5042949;28;20025;-89
2022/09/02 13:03:26;;;;;;;4.15;2.95;;;;;;;;;;5026821;28;20108;-88
2022/09/02 13:06:16;;;;;;;3.53;3.13;;;;;;;;;;5051836;28;20413;-88
2022/09/02 13:09:05;;;;;;;4.47;3.38;;;;;;;;;;5036706;28;20188;-91
2022/09/02 13:11:49;;;;;;;4.78;3.47;;;;;;;;;;5041975;28;20049;-89
2022/09/02 13:14:41;;;;;;;3.45;2.95;;;;;;;;;;5041931;28;20030;-91
2022/09/02 13:17:26;;;;;;;4.53;2.97;;;;;;;;;;5031822;28;20625;-85
2022/09/02 13:20:16;;;;;;;4.18;2.78;;;;;;;;;;5036853;28;20060;-89
2022/09/02 13:22:54;;;;;;;3.63;2.85;;;;;;;;;;5039566;28;20037;-89
2022/09/02 13:25:54;;;;;;;3.85;3.00;;;;;;;;;;5037964;28;20210;-89
2022/09/02 13:28:38;;;;;;;6.30;3.28;;;;;;;;;;5041156;28;20037;-88
2022/09/02 13:31:12;;;;;;;4.53;2.88;;;;;;;;;;5041925;28;20071;-91
2022/09/02 13:33:38;;;;;;;3.80;2.80;;;;;;;;;;5047687;28;20079;-89
2022/09/02 13:36:04;;;;;;;4.20;2.90;;;;;;;;;;5043561;28;20045;-85
2022/09/02 13:38:31;;;;;;;4.07;3.00;;;;;;;;;;5039583;28;20091;-91
2022/09/02 13:40:57;;;;;;;3.65;3.00;;;;;;;;;;5042124;28;20037;-88
2022/09/02 13:43:25;;;;;;;3.75;3.08;;;;;;;;;;5045160;28;20120;-90
2022/09/02 13:45:53;;;;;;;4.95;3.22;;;;;;;;;;5040302;28;20491;-89
2022/09/02 13:48:22;;;;;;;3.58;2.90;;;;;;;;;;5040722;28;20035;-90
2022/09/02 13:50:49;;;;;;;3.80;2.78;;;;;;;;;;5036948;28;20037;-89
2022/09/02 13:53:32;;;;;;;4.75;3.17;;;;;;;;;;5037991;28;20033;-89
2022/09/02 13:55:59;;;;;;;3.15;2.60;;;;;;;;;;5042507;28;20033;-90
2022/09/02 13:58:28;;;;;;;4.85;3.10;;;;;;;;;;5042968;28;20033;-89
2022/09/02 14:00:55;;;;;;;4.75;3.40;;;;;;;;;;5032828;28;20442;-89
2022/09/02 14:03:21;;;;;;;3.88;3.20;;;;;;;;;;5039986;28;20108;-90
2022/09/02 14:05:49;;;;;;;3.63;3.00;;;;;;;;;;5035302;28;20036;-90
2022/09/02 14:08:19;;;;;;;3.53;2.88;;;;;;;;;;5038677;28;20109;-87
2022/09/02 14:10:47;;;;;;;6.80;3.30;;;;;;;;;;5038210;28;20037;-88
2022/09/02 14:13:15;;;;;;;8.90;3.03;;;;;;;;;;5038946;28;20041;-91
2022/09/02 14:15:40;;;;;;;3.10;2.80;;;;;;;;;;5044185;28;20060;-91
2022/09/02 14:18:20;;;;;;;3.78;3.05;;;;;;;;;;5034273;28;20057;-94
2022/09/02 14:20:52;;;;;;;7.85;2.90;;;;;;;;;;5044425;28;20044;-91
2022/09/02 14:23:17;;;;;;;4.22;2.90;;;;;;;;;;5042653;28;20041;-91
2022/09/02 14:25:50;;;;;;;3.60;2.97;;;;;;;;;;5043873;28;20246;-93
2022/09/02 14:28:25;;;;;;;4.20;2.90;;;;;;;;;;5039940;28;20037;-90
2022/09/02 14:31:02;;;;;;;3.75;3.28;;;;;;;;;;5040238;28;20545;-89
2022/09/02 14:33:42;;;;;;;2.92;2.63;;;;;;;;;;5039186;28;20640;-90
2022/09/02 14:36:22;;;;;;;3.50;3.00;;;;;;;;;;5043000;28;20052;-82
2022/09/02 14:38:53;;;;;;;3.63;2.70;;;;;;;;;;5038334;28;20111;-82
2022/09/02 14:41:23;;;;;;;6.38;2.90;;;;;;;;;;5034020;28;20132;-82
2022/09/02 14:44:10;;;;;;;4.57;2.88;;;;;;;;;;5037233;28;21012;-82
2022/09/02 14:46:42;;;;;;;4.78;3.00;;;;;;;;;;5037100;28;20033;-82
2022/09/02 14:49:13;;;;;;;4.05;2.83;;;;;;;;;;5036356;28;20087;-82
2022/09/02 14:51:46;;;;;;;3.50;2.75;;;;;;;;;;5037909;28;20056;-83
2022/09/02 14:54:40;;;;;;;4.03;3.10;;;;;;;;;;5039595;28;20029;-81
2022/09/02 14:57:40;;;;;;;5.97;3.50;;;;;;;;;;5044584;28;20056;-82
2022/09/02 15:00:12;;;;;;;3.90;3.30;;;;;;;;;;5015706;28;20550;-82
2022/09/02 15:02:41;;;;;;;4.20;3.80;;;;;;;;;;5034541;28;20108;-81
2022/09/02 15:05:09;;;;;;;4.70;3.55;;;;;;;;;;5030627;28;20901;-79
2022/09/02 15:07:37;;;;;;;3.90;3.20;;;;;;;;;;5037282;28;20541;-81